aviador You're here:

RKNY Decoded Metar

YANGKU in KOREA
Report Time2018-06-25 06:00:00
UTC Time2018-06-25 06:23:39
Flight Rules vfr VFR
Wind050° at 03 kt
W.Decomp.*RWY 33: 0.2 kt HW 3.0 kt RCW
W.Rank050° ranks 19
Current wind is below 050° avg. (5.0)
Visibility9000 m
Phenomena:N/A
Clouds:N/A
Expected CloudBase > 2,400 ft AGL from Temp-Dew spread
CeilingNone
Temp24°C (ISA +9)
Dew Point18°C (69% RH)
QNH1009 hPa
Density Alt1,752 ft
Elevation243 ft
Report Wrong Elevation
Raw Report
RKNY 250600Z 05003KT 020V100 9000 NSC 24/18 Q1009 NOSIG=

Extra information for RKNY:More info

Metar Taf Metar & Taf Last 4 Metars F.Rules Stats Wind Profile Meteogram Temp Stats Airport Information Weather charts Add Link Nearby VenuesMetar ALERT Operation Metar Decoded Social comments